createdAt,value
2018-11-27T00:00:02.032Z,999.45
2018-11-27T00:05:01.368Z,999.43
2018-11-27T00:10:01.745Z,999.44
2018-11-27T00:15:02.015Z,999.48
2018-11-27T00:20:01.303Z,999.51
2018-11-27T00:25:01.608Z,999.56
2018-11-27T00:30:01.869Z,999.6
2018-11-27T00:35:02.105Z,999.59
2018-11-27T00:40:01.405Z,999.64
2018-11-27T00:45:01.789Z,999.63
2018-11-27T00:50:02.023Z,999.64
2018-11-27T00:55:01.300Z,999.66
2018-11-27T01:00:01.555Z,999.67
2018-11-27T01:05:01.833Z,999.69
2018-11-27T01:10:02.060Z,999.72
2018-11-27T01:15:01.343Z,999.74
2018-11-27T01:20:01.629Z,999.84
2018-11-27T01:25:01.888Z,999.92
2018-11-27T01:30:02.125Z,999.94
2018-11-27T01:35:01.437Z,999.96
2018-11-27T01:40:01.785Z,999.97
2018-11-27T01:45:02.061Z,1000.14
2018-11-27T01:50:01.338Z,1000.15
2018-11-27T01:55:01.602Z,1000.18
2018-11-27T02:00:02.029Z,1000.22
2018-11-27T02:05:01.399Z,1000.18
2018-11-27T02:10:01.814Z,1000.18
2018-11-27T02:15:02.048Z,1000.2
2018-11-27T02:20:01.485Z,1000.16
2018-11-27T02:25:01.678Z,1000.2
2018-11-27T02:30:01.968Z,1000.15
2018-11-27T02:35:02.243Z,1000.15
2018-11-27T02:40:01.614Z,1000.13
2018-11-27T02:45:01.939Z,1000.16
2018-11-27T02:50:02.170Z,1000.16
2018-11-27T02:55:01.465Z,1000.13
2018-11-27T03:00:01.774Z,1000.14
2018-11-27T03:05:02.052Z,1000.19
2018-11-27T03:10:01.344Z,1000.23
2018-11-27T03:15:01.662Z,1000.2
2018-11-27T03:20:01.964Z,1000.28
2018-11-27T03:25:02.229Z,1000.32
2018-11-27T03:30:01.719Z,1000.34
2018-11-27T03:35:02.008Z,1000.35
2018-11-27T03:40:02.177Z,1000.44
2018-11-27T03:45:01.474Z,1000.47
2018-11-27T03:50:01.812Z,1000.52
2018-11-27T03:55:02.070Z,1000.55
2018-11-27T04:00:01.334Z,1000.56
2018-11-27T04:05:01.623Z,1000.57
2018-11-27T04:10:01.866Z,1000.58
2018-11-27T04:15:02.121Z,1000.66
2018-11-27T04:20:01.405Z,1000.7
2018-11-27T04:25:01.698Z,1000.76
2018-11-27T04:30:01.951Z,1000.68
2018-11-27T04:35:02.200Z,1000.72
2018-11-27T04:40:01.467Z,1000.71
2018-11-27T04:45:01.754Z,1000.74
2018-11-27T04:50:01.987Z,1000.71
2018-11-27T04:55:02.361Z,1000.7
2018-11-27T05:00:01.625Z,1000.75
2018-11-27T05:05:01.940Z,1000.78
2018-11-27T05:10:02.177Z,1000.83
2018-11-27T05:15:01.434Z,1000.97
2018-11-27T05:20:01.722Z,1001.01
2018-11-27T05:25:02.002Z,1001.06
2018-11-27T05:30:01.265Z,1001.14
2018-11-27T05:35:01.673Z,1001.19
2018-11-27T05:40:01.406Z,1001.22
2018-11-27T05:45:01.709Z,1001.22
2018-11-27T05:50:01.949Z,1001.2
2018-11-27T05:55:02.181Z,1001.29
2018-11-27T06:00:01.455Z,1001.33
2018-11-27T06:05:01.808Z,1001.47
2018-11-27T06:10:02.049Z,1001.44
2018-11-27T06:15:01.318Z,1001.39
2018-11-27T06:20:01.613Z,1001.51
2018-11-27T06:25:01.876Z,1001.57
2018-11-27T06:30:02.141Z,1001.7
2018-11-27T06:35:01.417Z,1001.74
2018-11-27T06:40:01.677Z,1001.81
2018-11-27T06:45:01.944Z,1001.89
2018-11-27T06:50:02.184Z,1001.92
2018-11-27T06:55:01.439Z,1001.97
2018-11-27T07:00:01.719Z,1002.07
2018-11-27T07:05:01.985Z,1002.17
2018-11-27T07:10:02.219Z,1002.21
2018-11-27T07:15:01.504Z,1002.31
2018-11-27T07:20:01.785Z,1002.31
2018-11-27T07:25:02.024Z,1002.42
2018-11-27T07:30:01.299Z,1002.5
2018-11-27T07:35:01.541Z,1002.61
2018-11-27T07:40:03.587Z,1002.64
2018-11-27T07:45:01.864Z,1002.66
2018-11-27T07:50:02.144Z,1002.66
2018-11-27T07:55:01.417Z,1002.74
2018-11-27T08:00:01.717Z,1002.84
2018-11-27T08:05:01.980Z,1002.82
2018-11-27T08:10:02.212Z,1002.79
2018-11-27T08:15:01.483Z,1002.85
2018-11-27T08:20:01.870Z,1002.84
2018-11-27T08:25:02.099Z,1002.91
2018-11-27T08:30:01.354Z,1002.92
2018-11-27T08:35:01.880Z,1002.94
2018-11-27T08:40:02.115Z,1002.95
2018-11-27T08:45:01.377Z,1002.99
2018-11-27T08:50:01.639Z,1003.02
2018-11-27T08:55:01.917Z,1003.04
2018-11-27T09:00:02.164Z,1003.04
2018-11-27T09:05:01.494Z,1003.23
2018-11-27T09:10:01.768Z,1003.24
2018-11-27T09:15:02.017Z,1003.24
2018-11-27T09:20:01.279Z,1003.21
2018-11-27T09:25:01.506Z,1003.22
2018-11-27T09:30:01.794Z,1003.39
2018-11-27T09:35:02.077Z,1003.43
2018-11-27T09:40:01.335Z,1003.5
2018-11-27T09:45:01.669Z,1003.49
2018-11-27T09:50:01.956Z,1003.59
2018-11-27T09:55:02.208Z,1003.52
2018-11-27T10:00:01.502Z,1003.5
2018-11-27T10:05:01.794Z,1003.44
2018-11-27T10:10:02.181Z,1003.44
2018-11-27T10:15:01.476Z,1003.43
2018-11-27T10:20:01.757Z,1003.31
2018-11-27T10:25:02.000Z,1003.31
2018-11-27T10:30:01.307Z,1003.27
2018-11-27T10:35:01.631Z,1003.3
2018-11-27T10:40:01.912Z,1003.37
2018-11-27T10:45:02.313Z,1003.4
2018-11-27T10:50:01.573Z,1003.36
2018-11-27T10:55:01.834Z,1003.37
2018-11-27T11:00:02.118Z,1003.47
2018-11-27T11:05:01.417Z,1003.6
2018-11-27T11:10:01.708Z,1003.52
2018-11-27T11:15:02.063Z,1003.56
2018-11-27T11:20:01.364Z,1003.64
2018-11-27T11:25:01.629Z,1003.56
2018-11-27T11:30:01.907Z,1003.64
2018-11-27T11:35:02.160Z,1003.6
2018-11-27T11:40:01.430Z,1003.49
2018-11-27T11:45:01.691Z,1003.46
2018-11-27T11:50:01.942Z,1003.48
2018-11-27T11:55:02.194Z,1003.55
2018-11-27T12:00:01.474Z,1003.47
2018-11-27T12:05:01.753Z,1003.5
2018-11-27T12:10:02.052Z,1003.66
2018-11-27T12:15:01.351Z,1003.67
2018-11-27T12:20:01.636Z,1003.73
2018-11-27T12:25:01.872Z,1003.83
2018-11-27T12:30:02.106Z,1003.92
2018-11-27T12:35:01.396Z,1003.95
2018-11-27T12:40:01.664Z,1003.95
2018-11-27T12:45:01.945Z,1004.04
2018-11-27T12:50:02.186Z,1004.04
2018-11-27T12:55:01.481Z,1004.05
2018-11-27T13:00:01.755Z,1004.09
2018-11-27T13:05:02.004Z,1004.08
2018-11-27T13:10:01.288Z,1004.08
2018-11-27T13:15:01.591Z,1004.22
2018-11-27T13:20:01.863Z,1004.15
2018-11-27T13:25:02.101Z,1004.18
2018-11-27T13:30:01.387Z,1004.14
2018-11-27T13:35:01.835Z,1004.04
2018-11-27T13:40:02.081Z,1004.02
2018-11-27T13:45:01.416Z,1003.92
2018-11-27T13:50:01.713Z,1003.95
2018-11-27T13:55:01.976Z,1003.94
2018-11-27T14:00:02.215Z,1003.96
2018-11-27T14:05:01.555Z,1003.96
2018-11-27T14:10:01.827Z,1004.09
2018-11-27T14:15:02.103Z,1004.09
2018-11-27T14:20:01.510Z,1004.12
2018-11-27T14:25:01.874Z,1004.1
2018-11-27T14:30:02.159Z,1004.19
2018-11-27T14:35:01.520Z,1004.16
2018-11-27T14:40:01.826Z,1004.19
2018-11-27T14:45:02.112Z,1004.23
2018-11-27T14:50:04.430Z,1004.25
2018-11-27T14:55:01.719Z,1004.32
2018-11-27T15:00:01.669Z,1004.39
2018-11-27T15:05:01.949Z,1004.34
2018-11-27T15:10:02.194Z,1004.32
2018-11-27T15:15:01.467Z,1004.36
2018-11-27T15:20:01.793Z,1004.32
2018-11-27T15:25:02.092Z,1004.29
2018-11-27T15:30:01.472Z,1004.34
2018-11-27T15:35:01.761Z,1004.34
2018-11-27T15:40:02.007Z,1004.37
2018-11-27T15:45:01.308Z,1004.43
2018-11-27T15:50:01.596Z,1004.41
2018-11-27T15:55:01.893Z,1004.4
2018-11-27T16:00:02.125Z,1004.36
2018-11-27T16:05:01.443Z,1004.28
2018-11-27T16:10:01.741Z,1004.35
2018-11-27T16:15:02.004Z,1004.41
2018-11-27T16:20:01.412Z,1004.42
2018-11-27T16:25:01.715Z,1004.47
2018-11-27T16:30:02.046Z,1004.57
2018-11-27T16:35:01.363Z,1004.61
2018-11-27T16:40:01.649Z,1004.66
2018-11-27T16:45:01.903Z,1004.71
2018-11-27T16:50:02.351Z,1004.72
2018-11-27T16:55:01.689Z,1004.74
2018-11-27T17:00:01.964Z,1004.75
2018-11-27T17:05:02.204Z,1004.8
2018-11-27T17:10:01.518Z,1004.74
2018-11-27T17:15:01.795Z,1004.76
2018-11-27T17:20:02.032Z,1004.65
2018-11-27T17:25:01.306Z,1004.61
2018-11-27T17:30:01.789Z,1004.7
2018-11-27T17:35:02.062Z,1004.82
2018-11-27T17:40:01.345Z,1004.95
2018-11-27T17:45:01.630Z,1004.88
2018-11-27T17:50:01.940Z,1004.94
2018-11-27T17:55:02.181Z,1004.95
2018-11-27T18:00:01.463Z,1004.88
2018-11-27T18:05:01.750Z,1004.87
2018-11-27T18:10:02.008Z,1004.92
2018-11-27T18:15:01.527Z,1004.93
2018-11-27T18:20:01.864Z,1004.87
2018-11-27T18:25:02.098Z,1004.81
2018-11-27T18:30:01.380Z,1004.78
2018-11-27T18:35:01.667Z,1004.83
2018-11-27T18:40:01.931Z,1004.88
2018-11-27T18:45:02.171Z,1004.93
2018-11-27T18:50:01.492Z,1004.96
2018-11-27T18:55:01.788Z,1004.87
2018-11-27T19:00:02.031Z,1004.88
2018-11-27T19:05:01.333Z,1004.77
2018-11-27T19:10:01.619Z,1004.8
2018-11-27T19:15:01.916Z,1004.8
2018-11-27T19:20:02.164Z,1004.92
2018-11-27T19:25:01.445Z,1004.94
2018-11-27T19:30:01.715Z,1004.93
2018-11-27T19:35:01.997Z,1004.98
2018-11-27T19:40:01.311Z,1005.02
2018-11-27T19:45:01.605Z,1005.1
2018-11-27T19:50:01.872Z,1005.1
2018-11-27T19:55:02.194Z,1005.14
2018-11-27T20:00:01.534Z,1005.01
2018-11-27T20:05:01.806Z,1005.09
2018-11-27T20:10:02.102Z,1005.08
2018-11-27T20:15:01.388Z,1005.03
2018-11-27T20:20:01.660Z,1005.11
2018-11-27T20:25:01.911Z,1005.09
2018-11-27T20:30:02.191Z,1005.03
2018-11-27T20:35:01.521Z,1004.96
2018-11-27T20:40:01.807Z,1004.91
2018-11-27T20:45:02.057Z,1004.93
2018-11-27T20:50:01.416Z,1004.92
2018-11-27T20:55:01.711Z,1004.84
2018-11-27T21:00:01.979Z,1004.87
2018-11-27T21:05:01.301Z,1004.93
2018-11-27T21:10:01.624Z,1004.9
2018-11-27T21:15:02.132Z,1004.97
2018-11-27T21:20:01.431Z,1004.94
2018-11-27T21:25:01.745Z,1005.02
2018-11-27T21:30:02.067Z,1005.12
2018-11-27T21:35:01.420Z,1005.14
2018-11-27T21:40:01.689Z,1005.14
2018-11-27T21:45:01.977Z,1005.13
2018-11-27T21:50:02.223Z,1004.99
2018-11-27T21:55:01.499Z,1004.93
2018-11-27T22:00:01.780Z,1004.99
2018-11-27T22:05:02.055Z,1004.93
2018-11-27T22:10:01.398Z,1004.96
2018-11-27T22:15:01.713Z,1004.94
2018-11-27T22:20:02.071Z,1005.02
2018-11-27T22:25:01.393Z,1005.1
2018-11-27T22:30:01.708Z,1005.13
2018-11-27T22:35:01.981Z,1005.2
2018-11-27T22:40:02.396Z,1005.13
2018-11-27T22:45:01.666Z,1005.16
2018-11-27T22:50:01.950Z,1005.17
2018-11-27T22:55:02.175Z,1005.2
2018-11-27T23:00:01.485Z,1005.22
2018-11-27T23:05:01.736Z,1005.22
2018-11-27T23:10:02.000Z,1005.26
2018-11-27T23:15:01.298Z,1005.18
2018-11-27T23:20:01.595Z,1005.13
2018-11-27T23:25:01.825Z,1005.11
2018-11-27T23:30:02.083Z,1005.11
2018-11-27T23:35:01.400Z,1005.02
2018-11-27T23:40:01.693Z,1005.1
2018-11-27T23:45:01.949Z,1005.11
2018-11-27T23:50:02.208Z,1005.02
2018-11-27T23:55:01.510Z,1004.98
